createdAt,value
2024-04-14T00:00:52.729Z,99251.44
2024-04-14T00:03:20.349Z,99248.03
2024-04-14T00:05:47.354Z,99246.13
2024-04-14T00:08:15.860Z,99248.38
2024-04-14T00:10:43.346Z,99243.88
2024-04-14T00:13:10.731Z,99245.00
2024-04-14T00:15:40.929Z,99239.34
2024-04-14T00:18:08.485Z,99241.94
2024-04-14T00:20:36.360Z,99238.00
2024-04-14T00:23:04.257Z,99229.13
2024-04-14T00:25:31.210Z,99230.25
2024-04-14T00:27:58.567Z,99223.13
2024-04-14T00:30:25.912Z,99222.34
2024-04-14T00:32:53.543Z,99225.00
2024-04-14T00:35:22.745Z,99219.22
2024-04-14T00:37:50.048Z,99220.72
2024-04-14T00:40:17.192Z,99216.97
2024-04-14T00:42:45.826Z,99221.63
2024-04-14T00:45:12.973Z,99215.16
2024-04-14T00:47:40.429Z,99211.78
2024-04-14T00:50:09.222Z,99207.50
2024-04-14T00:52:36.250Z,99206.75
2024-04-14T00:55:04.132Z,99201.47
2024-04-14T00:57:33.686Z,99197.00
2024-04-14T01:00:02.639Z,99199.72
2024-04-14T01:02:30.352Z,99201.38
2024-04-14T01:04:57.414Z,99210.81
2024-04-14T01:07:25.430Z,99200.03
2024-04-14T01:09:53.048Z,99200.16
2024-04-14T01:12:20.543Z,99203.09
2024-04-14T01:14:47.507Z,99196.78
2024-04-14T01:17:14.955Z,99193.41
2024-04-14T01:19:42.042Z,99193.91
2024-04-14T01:22:08.987Z,99189.56
2024-04-14T01:24:36.578Z,99196.66
2024-04-14T01:27:03.575Z,99190.56
2024-04-14T01:29:31.102Z,99183.03
2024-04-14T01:31:58.161Z,99187.19
2024-04-14T01:34:25.448Z,99186.66
2024-04-14T01:36:52.605Z,99185.84
2024-04-14T01:39:20.656Z,99186.22
2024-04-14T01:41:47.640Z,99184.50
2024-04-14T01:44:15.355Z,99191.47
2024-04-14T01:46:42.341Z,99189.69
2024-04-14T01:49:09.887Z,99188.94
2024-04-14T01:51:37.085Z,99183.31
2024-04-14T01:54:04.479Z,99194.00
2024-04-14T01:56:31.458Z,99187.06
2024-04-14T01:58:58.331Z,99186.19
2024-04-14T02:01:25.715Z,99186.31
2024-04-14T02:03:52.861Z,99184.09
2024-04-14T02:06:20.329Z,99182.50
2024-04-14T02:08:47.546Z,99181.59
2024-04-14T02:11:14.920Z,99184.00
2024-04-14T02:13:41.902Z,99179.91
2024-04-14T02:16:09.840Z,99177.81
2024-04-14T02:18:37.445Z,99181.22
2024-04-14T02:21:05.286Z,99181.97
2024-04-14T02:23:32.193Z,99179.41
2024-04-14T02:26:00.679Z,99184.13
2024-04-14T02:28:27.613Z,99183.84
2024-04-14T02:30:55.064Z,99175.78
2024-04-14T02:33:22.423Z,99181.22
2024-04-14T02:36:03.022Z,99174.97
2024-04-14T02:38:30.472Z,99178.63
2024-04-14T02:41:02.341Z,99182.06
2024-04-14T02:43:30.757Z,99180.06
2024-04-14T02:45:58.231Z,99173.50
2024-04-14T02:48:25.648Z,99169.97
2024-04-14T02:50:53.068Z,99184.50
2024-04-14T02:53:20.107Z,99173.03
2024-04-14T02:55:47.515Z,99163.59
2024-04-14T02:58:14.477Z,99166.63
2024-04-14T03:00:41.512Z,99157.22
2024-04-14T03:03:09.020Z,99168.63
2024-04-14T03:05:35.967Z,99167.50
2024-04-14T03:08:05.513Z,99166.72
2024-04-14T03:10:33.856Z,99171.47
2024-04-14T03:13:00.938Z,99178.47
2024-04-14T03:15:28.007Z,99176.53
2024-04-14T03:17:55.674Z,99166.75
2024-04-14T03:20:22.800Z,99175.25
2024-04-14T03:22:50.199Z,99180.69
2024-04-14T03:25:17.432Z,99172.34
2024-04-14T03:27:45.872Z,99176.28
2024-04-14T03:30:12.952Z,99183.56
2024-04-14T03:32:40.381Z,99186.91
2024-04-14T03:35:07.383Z,99182.56
2024-04-14T03:37:40.301Z,99179.56
2024-04-14T03:40:09.390Z,99177.44
2024-04-14T03:42:36.771Z,99179.56
2024-04-14T03:45:06.859Z,99185.22
2024-04-14T03:47:34.568Z,99183.28
2024-04-14T03:50:03.119Z,99181.41
2024-04-14T03:52:30.141Z,99184.72
2024-04-14T03:54:57.691Z,99186.63
2024-04-14T03:57:24.803Z,99192.06
2024-04-14T03:59:52.234Z,99196.72
2024-04-14T04:02:19.672Z,99195.72
2024-04-14T04:04:46.722Z,99195.09
2024-04-14T04:07:14.199Z,99192.19
2024-04-14T04:09:41.327Z,99191.56
2024-04-14T04:12:09.026Z,99186.91
2024-04-14T04:14:36.016Z,99186.69
2024-04-14T04:17:02.976Z,99195.56
2024-04-14T04:19:33.459Z,99195.00
2024-04-14T04:22:00.679Z,99188.25
2024-04-14T04:24:28.836Z,99192.13
2024-04-14T04:26:55.994Z,99190.41
2024-04-14T04:29:26.185Z,99186.31
2024-04-14T04:31:53.174Z,99193.47
2024-04-14T04:34:20.399Z,99199.41
2024-04-14T04:36:50.167Z,99194.97
2024-04-14T04:39:18.066Z,99199.81
2024-04-14T04:41:45.502Z,99192.75
2024-04-14T04:44:12.579Z,99197.69
2024-04-14T04:46:39.931Z,99209.47
2024-04-14T04:49:06.910Z,99191.75
2024-04-14T04:51:34.344Z,99203.31
2024-04-14T04:54:02.512Z,99203.41
2024-04-14T04:56:29.544Z,99202.16
2024-04-14T04:58:56.916Z,99202.97
2024-04-14T05:01:23.941Z,99211.81
2024-04-14T05:03:52.356Z,99200.19
2024-04-14T05:06:19.438Z,99208.22
2024-04-14T05:08:48.026Z,99216.78
2024-04-14T05:11:15.136Z,99212.56
2024-04-14T05:13:42.096Z,99210.19
2024-04-14T05:16:10.079Z,99214.41
2024-04-14T05:18:37.402Z,99214.78
2024-04-14T05:21:04.790Z,99225.75
2024-04-14T05:23:32.160Z,99223.19
2024-04-14T05:26:02.564Z,99226.88
2024-04-14T05:28:29.707Z,99232.69
2024-04-14T05:30:59.677Z,99228.91
2024-04-14T05:33:26.716Z,99229.69
2024-04-14T05:35:57.456Z,99232.28
2024-04-14T05:38:24.538Z,99231.03
2024-04-14T05:40:51.906Z,99241.50
2024-04-14T05:43:18.939Z,99234.00
2024-04-14T05:45:46.807Z,99230.19
2024-04-14T05:48:15.329Z,99236.97
2024-04-14T05:50:42.846Z,99243.88
2024-04-14T05:53:09.850Z,99242.63
2024-04-14T05:55:37.195Z,99238.28
2024-04-14T05:58:04.569Z,99240.84
2024-04-14T06:00:32.127Z,99237.19
2024-04-14T06:03:01.122Z,99237.03
2024-04-14T06:05:28.513Z,99238.00
2024-04-14T06:07:58.165Z,99239.47
2024-04-14T06:10:25.870Z,99245.91
2024-04-14T06:12:53.556Z,99252.31
2024-04-14T06:15:20.530Z,99258.47
2024-04-14T06:17:48.230Z,99259.28
2024-04-14T06:20:15.725Z,99257.50
2024-04-14T06:22:42.655Z,99267.28
2024-04-14T06:25:10.115Z,99265.56
2024-04-14T06:27:37.196Z,99262.44
2024-04-14T06:30:05.037Z,99263.06
2024-04-14T06:32:32.435Z,99263.66
2024-04-14T06:35:00.584Z,99266.03
2024-04-14T06:37:27.509Z,99262.00
2024-04-14T06:39:54.919Z,99269.69
2024-04-14T06:42:22.040Z,99269.03
2024-04-14T06:44:48.993Z,99270.28
2024-04-14T06:47:16.471Z,99269.75
2024-04-14T06:49:43.893Z,99266.81
2024-04-14T06:52:11.349Z,99263.69
2024-04-14T06:54:40.152Z,99269.94
2024-04-14T06:57:07.519Z,99260.38
2024-04-14T06:59:35.574Z,99256.31
2024-04-14T07:02:03.371Z,99261.38
2024-04-14T07:04:30.586Z,99259.84
2024-04-14T07:06:58.085Z,99251.66
2024-04-14T07:09:25.337Z,99261.22
2024-04-14T07:11:53.595Z,99264.56
2024-04-14T07:14:23.631Z,99261.28
2024-04-14T07:16:50.956Z,99254.13
2024-04-14T07:19:18.089Z,99257.72
2024-04-14T07:21:45.807Z,99262.31
2024-04-14T07:24:13.693Z,99255.56
2024-04-14T07:26:44.059Z,99264.03
2024-04-14T07:29:11.251Z,99252.59
2024-04-14T07:31:38.578Z,99262.34
2024-04-14T07:34:05.570Z,99261.91
2024-04-14T07:36:33.114Z,99272.34
2024-04-14T07:39:00.274Z,99262.34
2024-04-14T07:41:27.667Z,99263.06
2024-04-14T07:43:54.809Z,99261.56
2024-04-14T07:46:23.748Z,99259.72
2024-04-14T07:48:51.154Z,99261.97
2024-04-14T07:51:18.574Z,99262.19
2024-04-14T07:53:45.536Z,99273.97
2024-04-14T07:56:12.919Z,99270.81
2024-04-14T07:58:40.006Z,99265.41
2024-04-14T08:01:07.576Z,99270.25
2024-04-14T08:03:46.722Z,99267.44
2024-04-14T08:06:18.736Z,99268.78
2024-04-14T08:08:45.668Z,99271.97
2024-04-14T08:11:13.280Z,99270.56
2024-04-14T08:13:40.756Z,99267.72
2024-04-14T08:16:08.568Z,99270.66
2024-04-14T08:18:35.790Z,99267.81
2024-04-14T08:21:06.369Z,99269.44
2024-04-14T08:23:33.487Z,99275.34
2024-04-14T08:26:01.847Z,99272.59
2024-04-14T08:28:29.805Z,99269.06
2024-04-14T08:30:57.030Z,99266.47
2024-04-14T08:33:26.103Z,99269.25
2024-04-14T08:35:53.280Z,99273.91
2024-04-14T08:38:21.630Z,99279.72
2024-04-14T08:40:52.804Z,99278.38
2024-04-14T08:43:21.858Z,99277.06
2024-04-14T08:45:51.632Z,99270.19
2024-04-14T08:48:20.698Z,99291.06
2024-04-14T08:50:48.567Z,99279.31
2024-04-14T08:53:18.545Z,99282.66
2024-04-14T08:55:47.084Z,99279.19
2024-04-14T08:58:16.876Z,99272.91
2024-04-14T09:00:47.784Z,99274.03
2024-04-14T09:03:15.695Z,99265.22
2024-04-14T09:05:45.557Z,99269.28
2024-04-14T09:08:12.929Z,99268.03
2024-04-14T09:10:39.842Z,99271.72
2024-04-14T09:13:09.449Z,99267.56
2024-04-14T09:15:43.320Z,99273.16
2024-04-14T09:18:10.962Z,99264.53
2024-04-14T09:20:37.981Z,99264.72
2024-04-14T09:23:05.400Z,99269.69
2024-04-14T09:25:34.559Z,99268.47
2024-04-14T09:28:17.484Z,99261.25
2024-04-14T09:30:45.032Z,99263.75
2024-04-14T09:33:12.934Z,99261.03
2024-04-14T09:35:40.436Z,99258.28
2024-04-14T09:38:16.006Z,99276.63
2024-04-14T09:40:44.427Z,99260.56
2024-04-14T09:43:12.406Z,99257.38
2024-04-14T09:45:41.468Z,99262.41
2024-04-14T09:48:10.768Z,99263.94
2024-04-14T09:50:40.445Z,99260.63
2024-04-14T09:53:08.718Z,99252.19
2024-04-14T09:55:39.708Z,99256.34
2024-04-14T09:58:08.013Z,99246.22
2024-04-14T10:00:37.961Z,99254.72
2024-04-14T10:03:09.635Z,99250.06
2024-04-14T10:05:40.114Z,99243.09
2024-04-14T10:08:09.186Z,99241.50
2024-04-14T10:10:37.150Z,99237.59
2024-04-14T10:13:10.147Z,99239.91
2024-04-14T10:15:45.793Z,99239.56
2024-04-14T10:18:16.330Z,99239.31
2024-04-14T10:20:48.733Z,99232.69
2024-04-14T10:23:18.957Z,99241.41
2024-04-14T10:25:48.872Z,99231.94
2024-04-14T10:28:20.508Z,99229.31
2024-04-14T10:30:50.544Z,99224.97
2024-04-14T10:33:24.523Z,99227.81
2024-04-14T10:36:05.728Z,99225.13
2024-04-14T10:38:35.111Z,99227.50
2024-04-14T10:41:02.639Z,99218.78
2024-04-14T10:43:31.741Z,99223.19
2024-04-14T10:46:02.724Z,99220.44
2024-04-14T10:48:32.836Z,99214.06
2024-04-14T10:51:03.152Z,99213.34
2024-04-14T10:53:30.879Z,99208.97
2024-04-14T10:55:58.160Z,99206.56
2024-04-14T10:58:30.122Z,99205.78
2024-04-14T11:00:57.842Z,99202.22
2024-04-14T11:03:26.735Z,99208.16
2024-04-14T11:05:55.444Z,99204.56
2024-04-14T11:08:26.819Z,99197.81
2024-04-14T11:10:56.377Z,99195.44
2024-04-14T11:13:29.208Z,99191.41
2024-04-14T11:16:00.469Z,99194.56
2024-04-14T11:18:31.051Z,99190.97
2024-04-14T11:21:01.690Z,99193.00
2024-04-14T11:23:31.607Z,99187.78
2024-04-14T11:25:58.923Z,99180.16
2024-04-14T11:28:26.319Z,99183.25
2024-04-14T11:30:53.770Z,99176.03
2024-04-14T11:33:23.431Z,99173.03
2024-04-14T11:36:00.408Z,99170.47
2024-04-14T11:38:28.036Z,99176.81
2024-04-14T11:40:56.876Z,99180.53
2024-04-14T11:43:25.765Z,99174.69
2024-04-14T11:45:53.912Z,99167.34
2024-04-14T11:48:25.623Z,99165.47
2024-04-14T11:50:53.331Z,99153.63
2024-04-14T11:53:20.783Z,99159.22
2024-04-14T11:55:47.714Z,99163.31
2024-04-14T11:58:17.738Z,99149.53
2024-04-14T12:00:46.419Z,99162.69
2024-04-14T12:03:13.859Z,99158.59
2024-04-14T12:05:40.792Z,99158.47
2024-04-14T12:08:08.136Z,99152.34
2024-04-14T12:10:35.248Z,99144.88
2024-04-14T12:13:02.734Z,99143.28
2024-04-14T12:15:29.723Z,99147.03
2024-04-14T12:18:00.555Z,99154.66
2024-04-14T12:20:28.108Z,99146.66
2024-04-14T12:22:56.019Z,99148.63
2024-04-14T12:25:23.544Z,99138.19
2024-04-14T12:27:51.012Z,99146.41
2024-04-14T12:30:18.542Z,99145.31
2024-04-14T12:32:46.128Z,99144.66
2024-04-14T12:35:13.220Z,99139.78
2024-04-14T12:37:40.682Z,99135.63
2024-04-14T12:40:08.383Z,99131.88
2024-04-14T12:42:36.549Z,99125.88
2024-04-14T12:45:03.898Z,99132.00
2024-04-14T12:47:30.901Z,99125.47
2024-04-14T12:49:58.434Z,99127.75
2024-04-14T12:52:25.455Z,99117.13
2024-04-14T12:54:52.962Z,99124.81
2024-04-14T12:57:20.901Z,99118.94
2024-04-14T12:59:49.112Z,99119.16
2024-04-14T13:02:16.642Z,99109.56
2024-04-14T13:04:46.602Z,99108.81
2024-04-14T13:07:14.631Z,99100.78
2024-04-14T13:09:42.060Z,99099.31
2024-04-14T13:12:11.277Z,99086.59
2024-04-14T13:14:39.382Z,99107.59
2024-04-14T13:17:06.888Z,99101.22
2024-04-14T13:19:36.414Z,99090.31
2024-04-14T13:22:03.717Z,99079.31
2024-04-14T13:24:31.672Z,99080.41
2024-04-14T13:26:58.617Z,99075.50
2024-04-14T13:29:25.988Z,99070.56
2024-04-14T13:31:52.928Z,99068.53
2024-04-14T13:34:20.533Z,99073.00
2024-04-14T13:36:47.528Z,99064.97
2024-04-14T13:39:14.854Z,99057.22
2024-04-14T13:41:41.817Z,99051.13
2024-04-14T13:44:09.214Z,99045.78
2024-04-14T13:46:36.308Z,99047.94
2024-04-14T13:49:05.074Z,99045.25
2024-04-14T13:51:32.084Z,99041.94
2024-04-14T13:53:59.521Z,99031.34
2024-04-14T13:56:28.501Z,99034.41
2024-04-14T13:58:56.478Z,99016.44
2024-04-14T14:01:23.686Z,99016.28
2024-04-14T14:03:51.239Z,99014.81
2024-04-14T14:06:18.593Z,99017.25
2024-04-14T14:08:45.923Z,99020.56
2024-04-14T14:11:13.196Z,99015.22
2024-04-14T14:13:40.588Z,99011.22
2024-04-14T14:16:08.663Z,99000.19
2024-04-14T14:18:36.297Z,99000.25
2024-04-14T14:21:03.829Z,98997.41
2024-04-14T14:23:31.201Z,98994.22
2024-04-14T14:25:58.153Z,98990.84
2024-04-14T14:28:25.700Z,98986.69
2024-04-14T14:30:52.883Z,98981.72
2024-04-14T14:33:39.259Z,98972.09
2024-04-14T14:36:25.922Z,98987.63
2024-04-14T14:38:57.197Z,98972.72
2024-04-14T14:41:25.189Z,98963.44
2024-04-14T14:43:54.257Z,98978.84
2024-04-14T14:46:22.362Z,98965.31
2024-04-14T14:48:50.363Z,98964.53
2024-04-14T14:51:17.844Z,98970.50
2024-04-14T14:53:44.909Z,98958.50
2024-04-14T14:56:12.571Z,98965.97
2024-04-14T14:58:39.986Z,98952.66
2024-04-14T15:01:07.639Z,98951.22
2024-04-14T15:03:35.461Z,98950.53
2024-04-14T15:06:03.031Z,98961.53
2024-04-14T15:08:30.683Z,98948.16
2024-04-14T15:10:57.774Z,98937.56
2024-04-14T15:13:25.347Z,98943.03
2024-04-14T15:15:57.252Z,98938.00
2024-04-14T15:18:25.429Z,98935.63
2024-04-14T15:20:53.379Z,98934.47
2024-04-14T15:23:21.172Z,98925.00
2024-04-14T15:25:48.152Z,98932.88
2024-04-14T15:28:22.844Z,98920.63
2024-04-14T15:30:56.292Z,98929.38
2024-04-14T15:33:23.800Z,98915.94
2024-04-14T15:35:50.968Z,98912.00
2024-04-14T15:38:18.481Z,98916.34
2024-04-14T15:40:48.127Z,98909.22
2024-04-14T15:43:15.581Z,98904.84
2024-04-14T15:45:42.614Z,98898.50
2024-04-14T15:48:10.133Z,98898.53
2024-04-14T15:50:37.067Z,98891.41
2024-04-14T15:53:04.706Z,98887.81
2024-04-14T15:55:31.755Z,98881.84
2024-04-14T15:57:59.277Z,98876.31
2024-04-14T16:00:26.211Z,98874.34
2024-04-14T16:02:54.160Z,98871.56
2024-04-14T16:05:21.183Z,98870.78
2024-04-14T16:07:48.952Z,98867.59
2024-04-14T16:10:16.207Z,98858.06
2024-04-14T16:12:43.898Z,98864.41
2024-04-14T16:15:11.014Z,98859.66
2024-04-14T16:17:38.433Z,98847.38
2024-04-14T16:20:06.039Z,98846.97
2024-04-14T16:22:33.487Z,98839.84
2024-04-14T16:25:00.495Z,98844.16
2024-04-14T16:27:27.844Z,98848.50
2024-04-14T16:29:54.953Z,98837.41
2024-04-14T16:32:24.968Z,98846.13
2024-04-14T16:34:52.050Z,98845.31
2024-04-14T16:37:19.980Z,98840.13
2024-04-14T16:39:47.274Z,98828.63
2024-04-14T16:42:14.798Z,98829.81
2024-04-14T16:44:42.061Z,98829.00
2024-04-14T16:47:09.552Z,98822.63
2024-04-14T16:49:36.513Z,98819.88
2024-04-14T16:52:04.493Z,98829.00
2024-04-14T16:54:34.013Z,98817.47
2024-04-14T16:57:01.835Z,98814.31
2024-04-14T16:59:29.200Z,98817.88
2024-04-14T17:01:56.691Z,98810.31
2024-04-14T17:04:23.832Z,98811.00
2024-04-14T17:06:51.357Z,98824.81
2024-04-14T17:09:18.304Z,98822.81
2024-04-14T17:11:46.911Z,98817.28
2024-04-14T17:14:14.016Z,98821.22
2024-04-14T17:16:41.774Z,98816.81
2024-04-14T17:19:08.923Z,98810.00
2024-04-14T17:21:36.313Z,98813.50
2024-04-14T17:24:03.425Z,98813.00
2024-04-14T17:26:30.797Z,98805.13
2024-04-14T17:28:58.032Z,98808.31
2024-04-14T17:31:25.481Z,98801.56
2024-04-14T17:33:52.872Z,98802.72
2024-04-14T17:36:20.245Z,98800.25
2024-04-14T17:38:47.695Z,98797.84
2024-04-14T17:41:14.619Z,98802.09
2024-04-14T17:43:42.025Z,98791.38
2024-04-14T17:46:09.538Z,98787.34
2024-04-14T17:48:36.646Z,98783.38
2024-04-14T17:51:07.892Z,98779.44
2024-04-14T17:53:37.906Z,98788.50
2024-04-14T17:56:05.560Z,98781.72
2024-04-14T17:58:33.213Z,98782.75
2024-04-14T18:01:01.038Z,98776.03
2024-04-14T18:03:29.141Z,98776.00
2024-04-14T18:05:57.957Z,98772.00
2024-04-14T18:08:25.580Z,98772.69
2024-04-14T18:10:52.530Z,98770.69
2024-04-14T18:13:19.937Z,98775.03
2024-04-14T18:15:47.162Z,98768.94
2024-04-14T18:18:14.579Z,98767.13
2024-04-14T18:20:43.413Z,98771.25
2024-04-14T18:23:12.775Z,98776.31
2024-04-14T18:25:43.374Z,98769.44
2024-04-14T18:28:10.771Z,98758.19
2024-04-14T18:30:40.328Z,98758.47
2024-04-14T18:33:07.994Z,98760.34
2024-04-14T18:35:35.361Z,98757.03
2024-04-14T18:38:02.786Z,98758.41
2024-04-14T18:40:30.277Z,98756.78
2024-04-14T18:42:57.251Z,98757.84
2024-04-14T18:45:24.567Z,98758.84
2024-04-14T18:47:51.680Z,98753.03
2024-04-14T18:50:19.181Z,98755.28
2024-04-14T18:52:46.822Z,98757.50
2024-04-14T18:55:14.015Z,98758.09
2024-04-14T18:57:41.537Z,98753.94
2024-04-14T19:00:08.929Z,98758.28
2024-04-14T19:02:36.643Z,98754.97
2024-04-14T19:05:04.136Z,98758.81
2024-04-14T19:07:32.094Z,98760.84
2024-04-14T19:10:00.755Z,98753.06
2024-04-14T19:12:31.870Z,98762.56
2024-04-14T19:14:59.250Z,98751.72
2024-04-14T19:17:28.339Z,98749.22
2024-04-14T19:19:55.847Z,98751.41
2024-04-14T19:22:23.341Z,98746.63
2024-04-14T19:24:51.539Z,98753.53
2024-04-14T19:27:18.939Z,98750.19
2024-04-14T19:29:46.256Z,98748.31
2024-04-14T19:32:13.169Z,98745.75
2024-04-14T19:34:40.666Z,98745.19
2024-04-14T19:37:07.729Z,98747.72
2024-04-14T19:39:39.952Z,98748.56
2024-04-14T19:42:07.139Z,98745.00
2024-04-14T19:44:34.503Z,98739.00
2024-04-14T19:47:02.167Z,98740.94
2024-04-14T19:49:29.579Z,98744.03
2024-04-14T19:51:56.644Z,98744.94
2024-04-14T19:54:24.113Z,98733.59
2024-04-14T19:56:51.167Z,98727.50
2024-04-14T19:59:18.775Z,98716.59
2024-04-14T20:01:46.427Z,98719.00
2024-04-14T20:04:13.625Z,98718.56
2024-04-14T20:06:41.181Z,98718.03
2024-04-14T20:09:11.383Z,98712.47
2024-04-14T20:11:39.020Z,98716.00
2024-04-14T20:14:06.634Z,98707.41
2024-04-14T20:16:35.494Z,98706.53
2024-04-14T20:19:03.029Z,98701.75
2024-04-14T20:21:32.971Z,98695.28
2024-04-14T20:24:00.591Z,98696.25
2024-04-14T20:26:28.466Z,98696.59
2024-04-14T20:28:55.401Z,98682.00
2024-04-14T20:31:26.063Z,98687.09
2024-04-14T20:33:53.559Z,98689.34
2024-04-14T20:36:20.576Z,98684.84
2024-04-14T20:38:49.741Z,98688.19
2024-04-14T20:41:16.812Z,98672.06
2024-04-14T20:43:45.456Z,98677.03
2024-04-14T20:46:12.747Z,98671.53
2024-04-14T20:48:40.397Z,98671.53
2024-04-14T20:51:07.541Z,98663.28
2024-04-14T20:53:36.574Z,98667.13
2024-04-14T20:56:03.656Z,98659.94
2024-04-14T20:58:31.254Z,98654.28
2024-04-14T21:01:03.530Z,98660.25
2024-04-14T21:03:31.033Z,98651.00
2024-04-14T21:05:58.206Z,98646.81
2024-04-14T21:08:25.558Z,98645.09
2024-04-14T21:11:06.905Z,98635.28
2024-04-14T21:13:34.449Z,98631.97
2024-04-14T21:16:11.063Z,98638.41
2024-04-14T21:18:39.213Z,98626.09
2024-04-14T21:21:06.239Z,98635.47
2024-04-14T21:23:33.674Z,98622.09
2024-04-14T21:26:04.736Z,98611.34
2024-04-14T21:28:33.950Z,98616.44
2024-04-14T21:31:01.190Z,98616.25
2024-04-14T21:33:29.414Z,98607.13
2024-04-14T21:35:57.568Z,98599.91
2024-04-14T21:38:25.751Z,98600.38
2024-04-14T21:40:56.514Z,98597.28
2024-04-14T21:43:23.603Z,98592.50
2024-04-14T21:45:59.040Z,98600.19
2024-04-14T21:48:28.420Z,98596.28
2024-04-14T21:51:06.570Z,98581.94
2024-04-14T21:53:36.158Z,98576.31
2024-04-14T21:56:04.299Z,98581.34
2024-04-14T21:58:35.135Z,98580.78
2024-04-14T22:01:12.578Z,98576.19
2024-04-14T22:03:41.019Z,98572.75
2024-04-14T22:06:08.109Z,98572.50
2024-04-14T22:08:37.963Z,98580.97
2024-04-14T22:11:06.443Z,98570.78
2024-04-14T22:13:36.560Z,98574.59
2024-04-14T22:16:03.800Z,98575.63
2024-04-14T22:18:31.999Z,98564.09
2024-04-14T22:21:00.786Z,98563.91
2024-04-14T22:23:28.244Z,98566.38
2024-04-14T22:25:55.802Z,98560.31
2024-04-14T22:28:23.212Z,98569.13
2024-04-14T22:30:51.477Z,98569.38
2024-04-14T22:33:22.810Z,98571.38
2024-04-14T22:35:49.953Z,98566.34
2024-04-14T22:38:16.961Z,98570.09
2024-04-14T22:40:44.276Z,98576.91
2024-04-14T22:43:11.217Z,98566.81
2024-04-14T22:45:38.719Z,98568.28
2024-04-14T22:48:06.067Z,98556.19
2024-04-14T22:50:33.478Z,98558.97
2024-04-14T22:53:02.384Z,98553.91
2024-04-14T22:55:29.456Z,98557.31
2024-04-14T22:57:56.840Z,98549.56
2024-04-14T23:00:24.854Z,98549.22
2024-04-14T23:02:52.137Z,98547.00
2024-04-14T23:05:20.514Z,98548.53
2024-04-14T23:07:47.417Z,98546.47
2024-04-14T23:10:16.002Z,98547.09
2024-04-14T23:12:43.596Z,98551.81
2024-04-14T23:15:10.585Z,98570.03
2024-04-14T23:17:38.294Z,98567.13
2024-04-14T23:20:05.639Z,98568.72
2024-04-14T23:22:33.097Z,98588.25
2024-04-14T23:25:00.712Z,98578.22
2024-04-14T23:27:28.139Z,98571.75
2024-04-14T23:29:55.096Z,98569.16
2024-04-14T23:32:22.450Z,98573.94
2024-04-14T23:34:49.378Z,98587.59
2024-04-14T23:37:16.919Z,98559.34
2024-04-14T23:39:43.894Z,98551.91
2024-04-14T23:42:11.955Z,98563.59
2024-04-14T23:44:39.469Z,98575.19
2024-04-14T23:47:08.205Z,98568.50
2024-04-14T23:49:35.761Z,98561.91
2024-04-14T23:52:02.787Z,98575.19
2024-04-14T23:54:30.090Z,98573.78
2024-04-14T23:56:57.093Z,98550.22
2024-04-14T23:59:24.764Z,98562.81
